Terminal Aerodrome Forecast
Issued by NWS Cleveland, OH

Home | Current Version | Previous Version | Graphics & Text | Print | Product List | Glossary On
Versions: 1 2 3 4 5 6 7 8 9 10 11 12 13 14 15 16 17 18 19 20 21 22 23 24 25 26
000
FTUS41 KCLE 201700
TAFCAK
TAF
KCAK 201736Z 2018/2118 20011KT P6SM VCSH BKN018 BKN035
      TEMPO 2018/2021 SCT018 BKN035
     FM202100 25006KT P6SM VCTS BKN035CB
     FM210000 24005KT P6SM SCT035 BKN250
     FM210900 24003KT 4SM BR VCSH SCT012 BKN045
      TEMPO 2109/2113 3SM BR BKN012
     FM211400 24006KT P6SM VCSH BKN035
      TEMPO 2114/2118 5SM TSRA BR BKN025CB=

USA.gov is the U.S. government's official web portal to all federal, state and local government web resources and services.